Time;durP1;ratioP1;P1;durP2;ratioP2;P2;SDS_P1;SDS_P2;PMS_P1;PMS_P2;Temp;Humidity;BMP_temperature;BMP_pressure;BME280_temperature;BME280_humidity;BME280_pressure;Samples;Min_cycle;Max_cycle;Signal;HPM_P1;HPM_P2
2023/01/01 00:02:24;;;;;;;16.58;9.57;;;16.00;99.90;;;;;;5028915;28;20430;-66
2023/01/01 00:04:51;;;;;;;17.90;10.52;;;16.10;99.90;;;;;;5031197;28;20419;-66
2023/01/01 00:07:18;;;;;;;18.33;10.88;;;16.10;99.90;;;;;;5030939;28;20469;-65
2023/01/01 00:12:28;;;;;;;21.23;12.43;;;15.90;99.90;;;;;;5030967;28;20394;-65
2023/01/01 00:14:56;;;;;;;23.45;13.23;;;15.90;99.90;;;;;;5030874;28;20526;-63
2023/01/01 00:17:23;;;;;;;20.45;14.15;;;15.90;99.90;;;;;;5029377;28;20415;-59
2023/01/01 00:19:50;;;;;;;26.52;15.35;;;15.80;99.90;;;;;;5030537;28;20415;-60
2023/01/01 00:22:16;;;;;;;27.13;15.70;;;15.80;99.90;;;;;;5031984;28;20415;-60
2023/01/01 00:24:43;;;;;;;25.50;14.90;;;15.70;99.90;;;;;;5042839;28;20418;-59
2023/01/01 00:27:10;;;;;;;21.15;14.70;;;15.70;99.90;;;;;;5050726;28;20410;-60
2023/01/01 00:29:36;;;;;;;22.95;14.50;;;15.60;99.90;;;;;;5050982;28;20425;-60
2023/01/01 00:32:05;;;;;;;19.73;13.40;;;15.60;99.90;;;;;;5050822;28;20463;-60
2023/01/01 00:34:32;;;;;;;25.30;14.37;;;15.60;99.90;;;;;;5050899;28;20463;-59
2023/01/01 00:36:58;;;;;;;22.60;13.60;;;15.60;99.90;;;;;;5050468;28;20414;-59
2023/01/01 00:39:25;;;;;;;20.87;13.53;;;15.60;99.90;;;;;;5050844;28;20490;-59
2023/01/01 00:41:52;;;;;;;23.65;14.15;;;15.70;99.90;;;;;;5050741;28;20409;-60
2023/01/01 00:44:19;;;;;;;24.17;13.75;;;15.70;99.90;;;;;;5050642;28;20406;-60
2023/01/01 00:46:45;;;;;;;22.83;14.93;;;15.70;99.90;;;;;;5050439;28;20474;-60
2023/01/01 00:49:13;;;;;;;22.38;13.80;;;15.70;99.90;;;;;;5050302;28;20497;-59
2023/01/01 00:51:40;;;;;;;26.23;14.82;;;15.70;99.90;;;;;;5050555;28;20417;-61
2023/01/01 00:54:07;;;;;;;25.07;14.10;;;15.60;99.90;;;;;;5042323;28;20429;-60
2023/01/01 00:56:34;;;;;;;22.80;14.52;;;15.70;99.90;;;;;;5030579;28;20422;-59
2023/01/01 00:59:01;;;;;;;24.17;14.77;;;15.80;99.90;;;;;;5030329;28;20967;-59
2023/01/01 01:01:27;;;;;;;23.20;13.35;;;15.80;99.90;;;;;;5030612;28;20442;-60
2023/01/01 01:03:54;;;;;;;24.05;12.57;;;15.90;99.90;;;;;;5030578;28;20464;-59
2023/01/01 01:06:23;;;;;;;19.50;11.55;;;15.90;99.90;;;;;;5030677;28;20423;-60
2023/01/01 01:08:50;;;;;;;21.38;11.05;;;15.80;99.90;;;;;;5030553;28;20426;-60
2023/01/01 01:11:19;;;;;;;18.33;10.40;;;15.70;99.90;;;;;;5030656;28;20419;-59
2023/01/01 01:13:48;;;;;;;18.52;10.68;;;15.60;99.90;;;;;;5030388;28;20427;-60
2023/01/01 01:16:18;;;;;;;17.65;10.35;;;15.60;99.90;;;;;;5029874;28;20415;-61
2023/01/01 01:18:46;;;;;;;16.77;9.85;;;15.60;99.90;;;;;;5030221;28;20894;-60
2023/01/01 01:21:16;;;;;;;18.17;10.48;;;15.50;99.90;;;;;;5030459;28;20419;-60
2023/01/01 01:23:44;;;;;;;18.50;10.50;;;15.50;99.90;;;;;;5038450;28;20411;-59
2023/01/01 01:26:13;;;;;;;15.70;10.05;;;15.50;99.90;;;;;;5046806;28;20475;-59
2023/01/01 01:28:41;;;;;;;19.08;9.85;;;15.40;99.90;;;;;;5049953;28;20896;-60
2023/01/01 01:31:08;;;;;;;16.40;9.68;;;15.30;99.90;;;;;;5056145;28;20531;-60
2023/01/01 01:33:35;;;;;;;12.68;8.52;;;15.30;99.90;;;;;;5056914;28;20423;-56
2023/01/01 01:36:02;;;;;;;14.95;8.75;;;15.30;99.90;;;;;;5056530;28;20799;-60
2023/01/01 01:38:29;;;;;;;14.32;7.88;;;15.30;99.90;;;;;;5056525;28;20416;-59
2023/01/01 01:40:57;;;;;;;12.30;7.43;;;15.20;99.90;;;;;;5056758;28;20409;-60
2023/01/01 01:43:45;;;;;;;13.73;7.07;;;15.20;99.90;;;;;;5056484;28;20421;-60
2023/01/01 01:46:16;;;;;;;10.70;6.60;;;15.20;99.90;;;;;;5055993;28;20416;-60
2023/01/01 01:48:45;;;;;;;12.15;6.13;;;15.20;99.90;;;;;;5056489;28;20420;-60
2023/01/01 01:51:14;;;;;;;12.63;5.93;;;15.30;99.90;;;;;;5056626;28;20423;-54
2023/01/01 01:53:44;;;;;;;9.57;5.07;;;15.20;99.90;;;;;;5048361;28;20475;-55
2023/01/01 01:56:17;;;;;;;9.60;4.80;;;15.20;99.90;;;;;;5039834;28;20422;-57
2023/01/01 01:58:44;;;;;;;11.65;4.88;;;15.20;99.90;;;;;;5037454;28;20418;-59
2023/01/01 02:01:10;;;;;;;7.05;4.30;;;15.20;99.90;;;;;;5036831;28;20775;-58
2023/01/01 02:03:42;;;;;;;9.57;4.32;;;15.10;99.90;;;;;;5036522;28;20481;-56
2023/01/01 02:06:09;;;;;;;6.40;3.67;;;15.10;99.90;;;;;;5036201;28;20446;-54
2023/01/01 02:08:37;;;;;;;9.20;3.67;;;15.10;99.90;;;;;;5036211;28;20422;-59
2023/01/01 02:11:03;;;;;;;6.45;3.75;;;15.10;99.90;;;;;;5036621;28;20423;-59
2023/01/01 02:13:32;;;;;;;6.28;3.13;;;15.00;99.90;;;;;;5036581;28;20418;-56
2023/01/01 02:16:06;;;;;;;6.00;2.92;;;15.00;99.90;;;;;;5036061;28;20886;-54
2023/01/01 02:18:39;;;;;;;6.18;2.80;;;15.00;99.90;;;;;;5036428;28;20418;-58
2023/01/01 02:21:11;;;;;;;6.47;2.78;;;15.00;99.90;;;;;;5036302;28;20472;-54
2023/01/01 02:24:05;;;;;;;8.25;2.67;;;15.00;99.90;;;;;;5044483;28;20419;-54
2023/01/01 02:26:41;;;;;;;5.35;2.42;;;14.80;99.90;;;;;;5055768;28;20423;-58
2023/01/01 02:29:18;;;;;;;5.75;2.20;;;14.80;99.90;;;;;;5056233;28;20451;-56
2023/01/01 02:31:52;;;;;;;9.45;2.13;;;14.90;99.90;;;;;;5056212;28;20466;-57
2023/01/01 02:34:23;;;;;;;6.07;2.05;;;14.90;99.90;;;;;;5056416;28;20475;-60
2023/01/01 02:36:54;;;;;;;4.75;1.90;;;14.90;99.90;;;;;;5056116;28;20462;-59
2023/01/01 02:39:25;;;;;;;5.00;1.83;;;14.90;99.90;;;;;;5056284;28;20413;-59
2023/01/01 02:41:54;;;;;;;4.57;1.70;;;14.90;99.90;;;;;;5053584;28;20425;-60
2023/01/01 02:44:24;;;;;;;4.90;1.83;;;14.90;99.90;;;;;;5052886;28;20422;-59
2023/01/01 02:46:51;;;;;;;5.10;1.80;;;14.80;99.90;;;;;;5052838;28;20417;-58
2023/01/01 02:49:18;;;;;;;4.13;1.90;;;14.80;99.90;;;;;;5052843;28;20779;-56
2023/01/01 02:51:59;;;;;;;4.82;1.83;;;14.80;99.90;;;;;;5052934;28;20417;-57
2023/01/01 02:54:34;;;;;;;4.78;1.73;;;14.80;99.90;;;;;;5042036;28;20417;-56
2023/01/01 02:57:09;;;;;;;4.93;1.80;;;14.70;99.90;;;;;;5032883;28;20415;-59
2023/01/01 03:02:42;;;;;;;4.63;1.67;;;14.80;99.90;;;;;;5032730;28;20761;-60
2023/01/01 03:05:19;;;;;;;6.28;1.88;;;14.70;99.90;;;;;;5032891;28;20454;-59
2023/01/01 03:07:56;;;;;;;3.53;1.60;;;14.70;99.90;;;;;;5032838;28;20426;-60
2023/01/01 03:10:29;;;;;;;4.28;1.65;;;14.70;99.90;;;;;;5032989;28;20890;-59
2023/01/01 03:13:02;;;;;;;4.95;1.45;;;14.70;99.90;;;;;;5032817;28;20423;-57
2023/01/01 03:15:36;;;;;;;6.03;1.90;;;14.70;99.90;;;;;;5032784;28;20411;-60
2023/01/01 03:18:08;;;;;;;7.43;2.08;;;14.70;99.90;;;;;;5032378;28;20477;-60
2023/01/01 03:20:41;;;;;;;4.03;1.60;;;14.70;99.90;;;;;;5032446;28;20427;-60
2023/01/01 03:23:15;;;;;;;4.38;1.65;;;14.70;99.90;;;;;;5040502;28;20421;-59
2023/01/01 03:25:46;;;;;;;4.00;1.60;;;14.70;99.90;;;;;;5037451;28;20866;-59
2023/01/01 03:28:17;;;;;;;2.97;1.48;;;14.70;99.90;;;;;;5052144;28;20467;-57
2023/01/01 03:30:49;;;;;;;4.35;1.48;;;14.70;99.90;;;;;;5052135;28;20899;-60
2023/01/01 03:33:22;;;;;;;7.05;1.67;;;14.70;99.90;;;;;;5051974;28;20471;-60
2023/01/01 03:35:53;;;;;;;5.35;1.50;;;14.60;99.90;;;;;;5052079;28;20500;-60
2023/01/01 03:38:23;;;;;;;4.00;1.50;;;14.70;99.90;;;;;;5051974;28;20413;-59
2023/01/01 03:40:53;;;;;;;2.28;1.50;;;14.60;99.90;;;;;;5052116;28;20948;-60
2023/01/01 03:43:27;;;;;;;5.20;1.80;;;14.60;99.90;;;;;;5052121;28;20417;-58
2023/01/01 03:45:57;;;;;;;5.47;1.52;;;14.60;99.90;;;;;;5051834;28;20846;-59
2023/01/01 03:48:24;;;;;;;5.25;1.60;;;14.60;99.90;;;;;;5051705;28;20838;-59
2023/01/01 03:50:58;;;;;;;3.17;1.48;;;14.60;99.90;;;;;;5052013;28;20409;-60
2023/01/01 03:53:36;;;;;;;4.13;1.30;;;14.50;99.90;;;;;;5043200;28;20488;-59
2023/01/01 03:56:13;;;;;;;6.43;1.63;;;14.60;99.90;;;;;;5035814;28;20886;-60
2023/01/01 03:58:45;;;;;;;4.28;1.50;;;14.50;99.90;;;;;;5031526;28;20423;-59
2023/01/01 04:01:20;;;;;;;4.13;1.55;;;14.60;99.90;;;;;;5031358;28;20497;-60
2023/01/01 04:03:48;;;;;;;3.85;1.60;;;14.50;99.90;;;;;;5031735;28;20514;-60
2023/01/01 04:06:15;;;;;;;4.20;1.80;;;14.50;99.90;;;;;;5031315;28;20504;-60
2023/01/01 04:08:42;;;;;;;5.40;1.60;;;14.50;99.90;;;;;;5031481;28;20858;-58
2023/01/01 04:14:03;;;;;;;3.90;1.30;;;14.50;99.90;;;;;;5013928;28;20410;-59
2023/01/01 04:16:31;;;;;;;3.70;1.57;;;14.60;99.90;;;;;;5030902;28;20917;-60
2023/01/01 04:18:58;;;;;;;3.70;1.40;;;14.60;99.90;;;;;;5031243;28;20477;-58
2023/01/01 04:21:24;;;;;;;3.72;1.45;;;14.60;99.90;;;;;;5031236;28;20414;-60
2023/01/01 04:23:51;;;;;;;3.55;1.33;;;14.50;99.90;;;;;;5039097;28;20894;-60
2023/01/01 04:26:18;;;;;;;3.83;1.38;;;14.60;99.90;;;;;;5048339;28;20910;-59
2023/01/01 04:28:45;;;;;;;5.33;1.37;;;14.50;99.90;;;;;;5051064;28;20900;-60
2023/01/01 04:31:11;;;;;;;5.03;1.40;;;14.50;99.90;;;;;;5050576;28;20479;-59
2023/01/01 04:33:39;;;;;;;2.55;1.20;;;14.60;99.90;;;;;;5051084;28;20409;-60
2023/01/01 04:36:08;;;;;;;4.75;1.52;;;14.60;99.90;;;;;;5050694;28;20796;-59
2023/01/01 04:38:36;;;;;;;4.30;1.27;;;14.60;99.90;;;;;;5050715;28;20412;-59
2023/01/01 04:41:04;;;;;;;6.37;1.70;;;14.60;99.90;;;;;;5051028;28;20447;-58
2023/01/01 04:43:31;;;;;;;5.43;1.47;;;14.60;99.90;;;;;;5050931;28;20425;-60
2023/01/01 04:45:58;;;;;;;3.60;1.60;;;14.60;99.90;;;;;;5050576;28;20807;-59
2023/01/01 04:48:26;;;;;;;5.53;1.40;;;14.60;99.90;;;;;;5050386;28;20413;-58
2023/01/01 04:50:59;;;;;;;3.72;1.50;;;14.70;99.90;;;;;;5050649;28;20463;-58
2023/01/01 04:53:29;;;;;;;5.13;1.53;;;14.60;99.90;;;;;;5042096;28;20466;-59
2023/01/01 04:55:56;;;;;;;5.90;1.60;;;14.50;99.90;;;;;;5035922;28;20424;-57
2023/01/01 04:58:22;;;;;;;5.70;1.83;;;14.60;99.90;;;;;;5030455;28;20430;-59
2023/01/01 05:00:50;;;;;;;5.38;1.60;;;14.50;99.90;;;;;;5030720;28;20415;-60
2023/01/01 05:03:16;;;;;;;3.50;1.50;;;14.50;99.90;;;;;;5030383;28;20445;-59
2023/01/01 05:05:43;;;;;;;5.32;1.38;;;14.60;99.90;;;;;;5029743;28;20422;-59
2023/01/01 05:08:11;;;;;;;4.85;1.45;;;14.60;99.90;;;;;;5030740;28;20415;-60
2023/01/01 05:10:38;;;;;;;4.18;1.60;;;14.50;99.90;;;;;;5030512;28;20411;-58
2023/01/01 05:13:07;;;;;;;3.67;1.60;;;14.50;99.90;;;;;;5030614;28;20418;-59
2023/01/01 05:15:36;;;;;;;4.13;1.73;;;14.50;99.90;;;;;;5030167;28;20473;-59
2023/01/01 05:18:03;;;;;;;4.88;1.40;;;14.50;99.90;;;;;;5030003;28;20484;-60
2023/01/01 05:20:29;;;;;;;7.72;1.58;;;14.50;99.90;;;;;;5030481;28;20419;-60
2023/01/01 05:22:56;;;;;;;6.32;1.38;;;14.40;99.90;;;;;;5036929;28;20418;-60
2023/01/01 05:25:24;;;;;;;5.53;1.48;;;14.40;99.90;;;;;;5041837;28;20429;-58
2023/01/01 05:27:51;;;;;;;3.20;1.60;;;14.40;99.90;;;;;;5049917;28;20413;-59
2023/01/01 05:30:18;;;;;;;5.65;1.85;;;14.40;99.90;;;;;;5050031;28;20471;-60
2023/01/01 05:32:45;;;;;;;3.55;1.60;;;14.30;99.90;;;;;;5049819;28;20471;-59
2023/01/01 05:35:12;;;;;;;4.30;1.77;;;14.30;99.90;;;;;;5050300;28;20470;-59
2023/01/01 05:37:38;;;;;;;5.88;1.38;;;14.30;99.90;;;;;;5049772;28;20413;-57
2023/01/01 05:40:06;;;;;;;4.65;1.60;;;14.30;99.90;;;;;;5049951;28;20409;-60
2023/01/01 05:42:35;;;;;;;4.28;1.60;;;14.40;99.90;;;;;;5049903;28;20419;-59
2023/01/01 05:45:02;;;;;;;4.23;1.40;;;14.30;99.90;;;;;;5050041;28;20409;-59
2023/01/01 05:47:29;;;;;;;5.55;1.48;;;14.30;99.90;;;;;;5049812;28;20447;-57
2023/01/01 05:49:56;;;;;;;6.45;1.80;;;14.30;99.90;;;;;;5050004;28;20938;-59
2023/01/01 05:52:22;;;;;;;6.10;1.60;;;14.40;99.90;;;;;;5048178;28;20765;-60
2023/01/01 05:54:49;;;;;;;7.00;1.60;;;14.40;99.90;;;;;;5038012;28;20419;-59
2023/01/01 05:57:16;;;;;;;6.22;1.40;;;14.40;99.90;;;;;;5029862;28;20419;-59
2023/01/01 05:59:44;;;;;;;4.88;1.30;;;14.50;99.90;;;;;;5029720;28;20452;-59
2023/01/01 06:02:10;;;;;;;4.67;1.63;;;14.40;1.00;;;;;;5030689;28;20414;-59
2023/01/01 06:04:37;;;;;;;9.75;1.65;;;14.40;1.00;;;;;;5030541;28;20464;-56
2023/01/01 06:07:04;;;;;;;4.72;1.50;;;14.40;1.00;;;;;;5029949;28;20431;-56
2023/01/01 06:09:30;;;;;;;6.15;1.60;;;14.40;1.00;;;;;;5030271;28;20419;-59
2023/01/01 06:11:57;;;;;;;4.80;1.45;;;14.40;1.00;;;;;;5030442;28;20447;-57
2023/01/01 06:14:23;;;;;;;6.70;1.60;;;14.40;1.00;;;;;;5030050;28;20423;-58
2023/01/01 06:16:52;;;;;;;3.83;1.50;;;14.10;1.00;;;;;;5031412;28;20419;-59
2023/01/01 06:19:18;;;;;;;5.95;1.70;;;14.00;60.70;;;;;;5033867;28;20465;-59
2023/01/01 06:21:45;;;;;;;6.03;1.50;;;14.00;99.90;;;;;;5033466;28;20459;-54
2023/01/01 06:24:12;;;;;;;5.25;1.50;;;13.90;99.90;;;;;;5042083;28;20411;-58
2023/01/01 06:26:39;;;;;;;4.72;1.67;;;14.00;46.10;;;;;;5053073;28;20425;-59
2023/01/01 06:29:05;;;;;;;5.80;1.70;;;14.00;44.70;;;;;;5053137;28;20479;-59
2023/01/01 06:31:32;;;;;;;4.07;1.45;;;14.10;17.00;;;;;;5053095;28;20409;-59
2023/01/01 06:34:00;;;;;;;3.35;1.50;;;14.10;1.00;;;;;;5053436;28;20435;-59
2023/01/01 06:36:27;;;;;;;6.63;1.70;;;14.20;1.00;;;;;;5053051;28;20474;-54
2023/01/01 06:38:55;;;;;;;3.60;1.50;;;14.10;1.00;;;;;;5053301;28;20531;-59
2023/01/01 06:41:24;;;;;;;2.80;1.40;;;14.20;1.00;;;;;;5053127;28;20425;-60
2023/01/01 06:43:51;;;;;;;3.67;1.60;;;14.30;1.00;;;;;;5052993;28;20425;-59
2023/01/01 06:46:20;;;;;;;3.40;1.55;;;14.30;1.00;;;;;;5052796;28;20475;-58
2023/01/01 06:48:48;;;;;;;3.60;1.40;;;14.30;1.00;;;;;;5053102;28;20409;-60
2023/01/01 06:51:18;;;;;;;4.10;1.52;;;14.30;1.00;;;;;;5052984;28;20413;-59
2023/01/01 06:53:45;;;;;;;5.65;1.52;;;14.30;1.00;;;;;;5044599;28;20490;-57
2023/01/01 06:56:12;;;;;;;3.53;1.42;;;14.30;1.00;;;;;;5035871;28;20801;-56
2023/01/01 06:58:39;;;;;;;3.92;1.40;;;14.30;1.00;;;;;;5032897;28;20418;-59
2023/01/01 07:01:07;;;;;;;7.38;2.15;;;14.30;1.00;;;;;;5032701;28;20410;-57
2023/01/01 07:03:34;;;;;;;4.32;1.38;;;14.30;1.00;;;;;;5032862;28;20411;-59
2023/01/01 07:06:00;;;;;;;3.17;1.55;;;14.30;1.00;;;;;;5032623;28;20489;-59
2023/01/01 07:08:28;;;;;;;5.85;1.70;;;14.20;4.00;;;;;;5032833;28;20419;-59
2023/01/01 07:10:56;;;;;;;7.10;1.92;;;14.10;86.70;;;;;;5032986;28;20423;-57
2023/01/01 07:13:23;;;;;;;4.95;1.80;;;14.10;99.90;;;;;;5032661;28;20889;-54
2023/01/01 07:15:49;;;;;;;7.00;1.58;;;14.00;99.90;;;;;;5032439;28;20461;-57
2023/01/01 07:18:16;;;;;;;4.50;1.60;;;13.90;1.00;;;;;;5032089;28;20956;-58
2023/01/01 07:20:43;;;;;;;4.45;1.63;;;13.80;1.00;;;;;;5032212;28;20441;-56
2023/01/01 07:23:11;;;;;;;5.80;1.50;;;13.70;1.00;;;;;;5040532;28;20444;-60
2023/01/01 07:25:41;;;;;;;4.57;1.80;;;13.60;99.50;;;;;;5044267;28;20478;-59
2023/01/01 07:28:07;;;;;;;5.00;1.50;;;13.60;99.90;;;;;;5051681;28;20785;-60
2023/01/01 07:30:34;;;;;;;5.05;1.70;;;13.70;99.90;;;;;;5052134;28;20417;-59
2023/01/01 07:33:01;;;;;;;4.72;1.70;;;13.80;99.90;;;;;;5051866;28;20413;-60
2023/01/01 07:35:27;;;;;;;5.13;1.73;;;13.80;99.90;;;;;;5051813;28;20417;-59
2023/01/01 07:37:54;;;;;;;4.10;1.60;;;13.60;1.00;;;;;;5051868;28;20413;-60
2023/01/01 07:40:21;;;;;;;2.60;1.40;;;13.50;99.90;;;;;;5051898;28;20420;-59
2023/01/01 07:42:49;;;;;;;5.65;1.88;;;13.60;99.90;;;;;;5052135;28;20461;-59
2023/01/01 07:45:16;;;;;;;6.22;1.85;;;13.40;99.90;;;;;;5051844;28;20425;-58
2023/01/01 07:47:43;;;;;;;5.40;1.48;;;13.40;1.00;;;;;;5051300;28;20927;-59
2023/01/01 07:50:16;;;;;;;5.77;1.70;;;13.40;99.90;;;;;;5051624;28;21020;-59
2023/01/01 07:52:43;;;;;;;5.55;1.60;;;13.30;99.90;;;;;;5047152;28;20963;-60
2023/01/01 07:55:12;;;;;;;6.27;1.67;;;13.40;99.90;;;;;;5039940;28;20423;-59
2023/01/01 07:57:39;;;;;;;4.30;1.70;;;13.10;1.00;;;;;;5031711;28;20535;-57
2023/01/01 08:00:09;;;;;;;6.10;1.80;;;13.00;99.90;;;;;;5031495;28;20423;-60
2023/01/01 08:02:36;;;;;;;3.40;1.63;;;12.90;99.90;;;;;;5031474;28;20505;-60
2023/01/01 08:05:03;;;;;;;4.97;1.90;;;12.80;99.90;;;;;;5031501;28;20468;-61
2023/01/01 08:07:30;;;;;;;4.43;1.80;;;12.80;1.00;;;;;;5031471;28;20473;-59
2023/01/01 08:09:56;;;;;;;5.18;1.85;;;12.70;99.90;;;;;;5031543;28;20476;-59
2023/01/01 08:12:24;;;;;;;4.43;1.60;;;12.70;99.90;;;;;;5031755;28;20419;-59
2023/01/01 08:14:51;;;;;;;8.25;2.13;;;12.80;99.90;;;;;;5031282;28;20431;-59
2023/01/01 08:17:19;;;;;;;6.13;1.80;;;12.70;99.90;;;;;;5030913;28;20407;-59
2023/01/01 08:19:48;;;;;;;5.10;1.70;;;12.80;99.90;;;;;;5031560;28;20465;-60
2023/01/01 08:22:15;;;;;;;4.80;1.80;;;12.80;99.90;;;;;;5032087;28;20474;-59
2023/01/01 08:24:41;;;;;;;5.95;1.90;;;12.80;99.90;;;;;;5042969;28;20421;-60
2023/01/01 08:27:10;;;;;;;6.23;1.70;;;12.70;99.90;;;;;;5050887;28;20501;-59
2023/01/01 08:29:36;;;;;;;7.97;1.75;;;12.80;99.90;;;;;;5051019;28;20512;-60
2023/01/01 08:32:03;;;;;;;4.72;1.75;;;12.90;99.90;;;;;;5050630;28;20419;-60
2023/01/01 08:34:32;;;;;;;7.68;1.70;;;12.80;99.90;;;;;;5051280;28;20420;-56
2023/01/01 08:36:59;;;;;;;6.60;1.80;;;12.90;99.90;;;;;;5050667;28;20871;-60
2023/01/01 08:39:26;;;;;;;5.28;2.00;;;12.90;99.90;;;;;;5050160;28;20511;-60
2023/01/01 08:41:53;;;;;;;4.70;1.85;;;13.00;39.90;;;;;;5050949;28;20413;-60
2023/01/01 08:44:20;;;;;;;4.57;1.75;;;13.00;93.80;;;;;;5050654;28;20421;-60
2023/01/01 08:46:46;;;;;;;6.03;2.08;;;13.10;1.00;;;;;;5050484;28;20429;-60
2023/01/01 08:49:13;;;;;;;6.32;1.92;;;13.10;1.00;;;;;;5050732;28;20769;-60
2023/01/01 08:51:41;;;;;;;5.15;1.67;;;13.10;1.00;;;;;;5050763;28;20417;-60
2023/01/01 08:54:08;;;;;;;6.15;1.85;;;13.20;1.00;;;;;;5042232;28;20416;-61
2023/01/01 08:56:36;;;;;;;7.32;2.03;;;13.20;99.90;;;;;;5050439;28;20435;-60
2023/01/01 08:59:03;;;;;;;5.95;1.73;;;13.30;99.90;;;;;;5050220;28;20945;-59
2023/01/01 09:01:30;;;;;;;7.68;1.75;;;13.40;44.80;;;;;;5050684;28;20491;-62
2023/01/01 09:03:57;;;;;;;6.65;1.73;;;13.40;99.90;;;;;;5050706;28;20406;-60
2023/01/01 09:06:24;;;;;;;6.57;1.77;;;13.50;91.40;;;;;;5050183;28;20924;-60
2023/01/01 09:08:52;;;;;;;5.28;1.90;;;13.60;99.90;;;;;;5050585;28;20892;-60
2023/01/01 09:11:23;;;;;;;6.45;1.70;;;13.60;1.00;;;;;;5050448;28;20475;-60
2023/01/01 09:13:50;;;;;;;6.80;1.83;;;13.50;1.00;;;;;;5050717;28;20476;-60
2023/01/01 09:16:17;;;;;;;5.38;2.08;;;13.60;99.90;;;;;;5050131;28;20409;-60
2023/01/01 09:18:43;;;;;;;5.30;1.80;;;13.60;99.90;;;;;;5050387;28;20413;-57
2023/01/01 09:21:10;;;;;;;10.02;2.28;;;13.70;81.30;;;;;;5050268;28;20417;-59
2023/01/01 09:23:37;;;;;;;7.05;1.92;;;13.80;1.00;;;;;;5041965;28;20421;-59
2023/01/01 09:26:07;;;;;;;6.32;1.85;;;13.90;1.00;;;;;;5034184;28;20423;-59
2023/01/01 09:28:34;;;;;;;5.23;1.90;;;13.80;1.00;;;;;;5030466;28;20421;-61
2023/01/01 09:31:01;;;;;;;6.45;1.90;;;13.80;1.00;;;;;;5030450;28;20434;-60
2023/01/01 09:33:28;;;;;;;4.05;1.88;;;13.70;99.90;;;;;;5030065;28;20411;-61
2023/01/01 09:35:55;;;;;;;5.57;1.60;;;13.80;78.60;;;;;;5029886;28;20987;-61
2023/01/01 09:38:21;;;;;;;9.15;2.17;;;13.90;1.00;;;;;;5030212;28;20411;-61
2023/01/01 09:40:55;;;;;;;4.78;1.80;;;13.90;1.00;;;;;;5030754;28;20472;-61
2023/01/01 09:43:36;;;;;;;7.50;1.90;;;13.80;97.30;;;;;;5030183;28;20425;-61
2023/01/01 09:46:06;;;;;;;5.55;1.88;;;13.80;99.90;;;;;;5030096;28;20447;-61
2023/01/01 09:48:36;;;;;;;6.00;1.80;;;13.80;1.00;;;;;;5029955;28;20451;-59
2023/01/01 09:51:07;;;;;;;5.80;1.60;;;13.80;99.90;;;;;;5032003;28;20455;-61
2023/01/01 09:53:41;;;;;;;6.23;1.77;;;13.90;1.00;;;;;;5042621;28;20476;-54
2023/01/01 09:56:13;;;;;;;6.45;1.80;;;13.80;34.70;;;;;;5050440;28;20935;-58
2023/01/01 09:58:41;;;;;;;5.05;1.83;;;13.70;99.90;;;;;;5054016;28;20487;-61
2023/01/01 10:01:15;;;;;;;7.93;2.33;;;13.80;99.90;;;;;;5024107;28;20464;-63
2023/01/01 10:03:47;;;;;;;5.65;2.13;;;13.80;99.90;;;;;;5034751;28;20426;-63
2023/01/01 10:06:22;;;;;;;6.72;1.98;;;13.90;1.00;;;;;;5037629;28;20483;-65
2023/01/01 10:09:00;;;;;;;7.57;2.00;;;13.70;99.90;;;;;;5054163;28;20412;-65
2023/01/01 10:11:35;;;;;;;5.10;1.73;;;13.80;99.40;;;;;;5056462;28;20457;-65
2023/01/01 10:14:11;;;;;;;6.75;1.90;;;13.80;99.90;;;;;;5053204;28;20506;-65
2023/01/01 10:16:42;;;;;;;7.18;1.70;;;13.90;99.90;;;;;;5052569;28;20454;-66
2023/01/01 10:19:22;;;;;;;6.30;1.80;;;13.80;99.90;;;;;;5053099;28;20450;-63
2023/01/01 10:21:51;;;;;;;5.85;2.08;;;13.80;99.90;;;;;;5053040;28;20497;-65
2023/01/01 10:24:33;;;;;;;4.82;1.77;;;13.90;99.90;;;;;;5043096;28;20417;-63
2023/01/01 10:27:03;;;;;;;6.25;1.92;;;13.80;99.90;;;;;;5040935;28;20992;-62
2023/01/01 10:29:38;;;;;;;5.60;2.10;;;13.80;1.00;;;;;;5049327;28;20463;-65
2023/01/01 10:32:17;;;;;;;7.75;1.92;;;13.80;1.00;;;;;;5041038;28;20483;-64
2023/01/01 10:34:44;;;;;;;3.80;1.77;;;13.80;99.90;;;;;;5038727;28;20478;-61
2023/01/01 10:37:13;;;;;;;4.78;1.88;;;13.80;99.90;;;;;;5052233;28;20412;-64
2023/01/01 10:39:41;;;;;;;5.25;1.90;;;13.90;1.00;;;;;;5052808;28;20507;-62
2023/01/01 10:42:10;;;;;;;5.45;1.70;;;13.80;99.90;;;;;;5052820;28;20421;-60
2023/01/01 10:44:39;;;;;;;7.50;1.77;;;13.90;99.90;;;;;;5050815;28;20855;-60
2023/01/01 10:47:25;;;;;;;6.90;1.90;;;13.80;99.90;;;;;;5043242;28;20911;-59
2023/01/01 10:49:56;;;;;;;6.22;2.10;;;13.90;1.00;;;;;;5012672;28;20424;-61
2023/01/01 10:52:27;;;;;;;8.37;2.33;;;14.00;99.90;;;;;;5016851;28;20473;-62
2023/01/01 10:54:54;;;;;;;5.50;1.85;;;13.90;99.90;;;;;;5044156;28;20457;-65
2023/01/01 10:57:31;;;;;;;6.40;1.70;;;13.90;99.90;;;;;;5014393;28;20480;-63
2023/01/01 11:00:11;;;;;;;6.63;1.75;;;13.90;99.90;;;;;;5012094;28;20517;-64
2023/01/01 11:02:38;;;;;;;6.30;1.52;;;13.90;99.90;;;;;;5011992;28;20478;-65
2023/01/01 11:05:15;;;;;;;5.87;1.93;;;13.90;99.90;;;;;;5012747;28;20588;-62
2023/01/01 11:07:42;;;;;;;8.00;1.80;;;13.90;1.00;;;;;;5012061;28;20518;-63
2023/01/01 11:10:17;;;;;;;6.55;2.22;;;13.80;1.00;;;;;;5012086;28;20420;-61
2023/01/01 11:12:44;;;;;;;6.82;2.17;;;13.80;1.00;;;;;;5012362;28;20504;-53
2023/01/01 11:15:23;;;;;;;7.10;1.95;;;13.90;99.90;;;;;;5012355;28;20799;-59
2023/01/01 11:17:50;;;;;;;7.32;1.92;;;13.90;1.00;;;;;;5012203;28;20449;-58
2023/01/01 11:20:19;;;;;;;4.15;1.40;;;13.90;99.90;;;;;;5011995;28;20424;-59
2023/01/01 11:22:49;;;;;;;5.45;2.00;;;14.00;1.00;;;;;;5017075;28;20922;-62
2023/01/01 11:25:21;;;;;;;7.22;1.90;;;14.10;99.90;;;;;;5043707;28;20454;-61
2023/01/01 11:27:51;;;;;;;5.35;2.53;;;14.10;29.70;;;;;;5050167;28;20478;-62
2023/01/01 11:30:25;;;;;;;3.92;1.58;;;14.10;99.90;;;;;;5050967;28;20460;-62
2023/01/01 11:32:55;;;;;;;7.07;1.90;;;14.10;99.90;;;;;;5052701;28;20422;-60
2023/01/01 11:35:24;;;;;;;5.75;1.88;;;14.00;1.00;;;;;;5052811;28;20458;-60
2023/01/01 11:37:52;;;;;;;8.32;1.77;;;14.00;99.90;;;;;;5052175;28;20458;-62
2023/01/01 11:40:22;;;;;;;7.38;2.10;;;14.20;56.80;;;;;;5052119;28;20459;-61
2023/01/01 11:42:52;;;;;;;6.90;2.07;;;14.10;99.90;;;;;;5052188;28;20479;-62
2023/01/01 11:45:21;;;;;;;8.45;2.03;;;14.10;1.00;;;;;;5052490;28;20465;-61
2023/01/01 11:47:55;;;;;;;8.23;2.25;;;14.10;1.00;;;;;;5051670;28;20474;-62
2023/01/01 11:50:26;;;;;;;7.60;2.05;;;14.10;9.20;;;;;;5052417;28;20458;-61
2023/01/01 11:52:57;;;;;;;5.60;1.80;;;14.10;31.70;;;;;;5046050;28;20464;-59
2023/01/01 11:55:33;;;;;;;5.83;1.80;;;14.20;7.00;;;;;;5040303;28;20918;-61
2023/01/01 11:58:05;;;;;;;7.63;1.92;;;14.20;99.90;;;;;;5031820;28;20448;-61
2023/01/01 12:00:35;;;;;;;6.43;2.00;;;14.20;20.60;;;;;;5031823;28;20448;-60
2023/01/01 12:03:14;;;;;;;6.68;2.20;;;14.20;1.00;;;;;;5032269;28;20827;-58
2023/01/01 12:05:48;;;;;;;9.20;2.00;;;14.20;1.00;;;;;;5031980;28;20467;-58
2023/01/01 12:08:22;;;;;;;7.22;2.28;;;14.20;99.90;;;;;;5031970;28;20426;-62
2023/01/01 12:10:55;;;;;;;6.63;1.95;;;14.20;99.90;;;;;;5032181;28;20480;-60
2023/01/01 12:13:26;;;;;;;5.70;1.80;;;14.10;1.00;;;;;;5031875;28;20419;-63
2023/01/01 12:16:02;;;;;;;6.20;1.98;;;14.00;99.90;;;;;;5031357;28;20468;-62
2023/01/01 12:18:37;;;;;;;7.65;2.10;;;14.00;22.70;;;;;;5031633;28;20487;-62
2023/01/01 12:21:11;;;;;;;9.65;1.92;;;13.90;80.30;;;;;;5031423;28;20898;-62
2023/01/01 12:23:38;;;;;;;7.78;1.92;;;13.90;17.20;;;;;;5038701;28;20426;-62
2023/01/01 12:26:15;;;;;;;9.00;2.10;;;14.00;1.00;;;;;;5047140;28;20416;-62
2023/01/01 12:28:59;;;;;;;6.10;1.77;;;14.00;1.00;;;;;;5051501;28;20433;-62
2023/01/01 12:31:34;;;;;;;6.97;2.03;;;14.10;1.00;;;;;;5050707;28;20424;-62
2023/01/01 12:34:12;;;;;;;8.45;2.25;;;14.00;1.00;;;;;;5051423;28;20420;-62
2023/01/01 12:36:48;;;;;;;7.40;1.98;;;14.00;99.90;;;;;;5035363;28;21153;-63
2023/01/01 12:39:56;;;;;;;5.73;1.70;;;14.00;99.90;;;;;;5036458;28;20489;-63
2023/01/01 12:42:30;;;;;;;7.22;2.03;;;13.90;99.90;;;;;;5043150;28;20478;-63
2023/01/01 12:45:25;;;;;;;5.38;1.83;;;14.00;99.90;;;;;;5039280;28;20442;-62
2023/01/01 12:48:01;;;;;;;4.70;1.67;;;14.10;26.10;;;;;;5030235;28;20483;-61
2023/01/01 12:50:40;;;;;;;8.50;1.90;;;14.00;99.90;;;;;;5031274;28;20709;-62
2023/01/01 12:53:21;;;;;;;6.22;1.95;;;14.00;1.00;;;;;;5038977;28;20453;-60
2023/01/01 12:56:11;;;;;;;6.50;2.10;;;14.00;3.60;;;;;;5038283;28;20935;-63
2023/01/01 12:58:41;;;;;;;6.63;1.73;;;14.10;99.90;;;;;;5050103;28;20449;-65
2023/01/01 13:01:12;;;;;;;7.75;1.80;;;14.00;1.00;;;;;;5050509;28;20417;-62
2023/01/01 13:03:48;;;;;;;5.55;1.70;;;14.00;99.90;;;;;;5050507;28;20444;-66
2023/01/01 13:06:18;;;;;;;7.40;2.50;;;14.10;1.00;;;;;;5050118;28;20420;-64
2023/01/01 13:08:49;;;;;;;6.75;2.00;;;14.20;99.90;;;;;;5050206;28;20429;-62